Ardsley, New York
Current Conditions -  °F | °C
As of 8:56 AM on Monday 20 Oct 2014 (Local Time) from KHPN Reporting Station
Clear Clear  
Wind Chill: 42°   Ceiling: Unl
Heat Index: 42°   Visibility: 10mi
Dew Point: 32°   Wind: 0mph
Humidity: 67%   Direction: NA
Pressure: 30.1"   Gusts: NA
Location:  41.01°N, 73.84°W
Report Text: KHPN 201256Z 00000KT 10SM CLR 06/00 A3010 RMK AO2 SLP199 T00560000
Loading
Personal Weather Stations






























Interactive Weather Map
Tropical Storm Tracking
New forecast layout! Learn more

10-Day Weather Forecast

Advertisements
Track Severe Weather on mobile